createdAt,value
2022-09-22T00:01:26.336Z,9.05
2022-09-22T00:04:03.878Z,9.14
2022-09-22T00:06:34.572Z,9.16
2022-09-22T00:09:02.276Z,9.14
2022-09-22T00:11:36.201Z,9.13
2022-09-22T00:14:20.793Z,9.09
2022-09-22T00:16:54.187Z,9.08
2022-09-22T00:19:27.573Z,9.04
2022-09-22T00:21:54.860Z,8.98
2022-09-22T00:24:24.006Z,8.89
2022-09-22T00:26:52.581Z,8.66
2022-09-22T00:29:20.182Z,8.71
2022-09-22T00:31:47.788Z,8.80
2022-09-22T00:34:18.487Z,8.77
2022-09-22T00:36:45.965Z,8.81
2022-09-22T00:39:13.973Z,8.85
2022-09-22T00:41:44.974Z,8.81
2022-09-22T00:44:27.031Z,8.89
2022-09-22T00:47:02.814Z,8.90
2022-09-22T00:49:56.535Z,8.99
2022-09-22T00:52:29.228Z,8.93
2022-09-22T00:55:00.746Z,8.88
2022-09-22T00:57:31.911Z,8.88
2022-09-22T01:00:04.299Z,8.82
2022-09-22T01:02:32.017Z,8.78
2022-09-22T01:04:58.719Z,8.71
2022-09-22T01:07:29.128Z,8.47
2022-09-22T01:09:56.562Z,8.36
2022-09-22T01:12:26.708Z,8.45
2022-09-22T01:15:18.826Z,8.43
2022-09-22T01:18:21.269Z,8.44
2022-09-22T01:21:02.314Z,8.45
2022-09-22T01:24:04.188Z,8.46
2022-09-22T01:26:56.278Z,8.40
2022-09-22T01:29:36.137Z,8.11
2022-09-22T01:32:12.941Z,8.13
2022-09-22T01:34:45.640Z,8.12
2022-09-22T01:37:23.460Z,8.14
2022-09-22T01:40:16.344Z,8.15
2022-09-22T01:42:51.592Z,8.18
2022-09-22T01:45:23.105Z,8.27
2022-09-22T01:48:02.761Z,8.22
2022-09-22T01:50:36.456Z,8.25
2022-09-22T01:53:28.555Z,8.21
2022-09-22T01:56:00.630Z,8.18
2022-09-22T01:58:35.104Z,8.12
2022-09-22T02:01:14.281Z,8.13
2022-09-22T02:03:54.018Z,8.13
2022-09-22T02:06:26.769Z,8.14
2022-09-22T02:09:02.292Z,8.07
2022-09-22T02:11:29.179Z,8.00
2022-09-22T02:13:56.128Z,7.98
2022-09-22T02:16:25.057Z,7.86
2022-09-22T02:18:56.127Z,7.78
2022-09-22T02:21:25.226Z,7.77
2022-09-22T02:23:51.891Z,7.76
2022-09-22T02:26:23.873Z,7.72
2022-09-22T02:29:11.579Z,7.70
2022-09-22T02:31:39.954Z,7.67
2022-09-22T02:34:08.823Z,7.73
2022-09-22T02:36:41.572Z,7.73
2022-09-22T02:39:40.006Z,7.73
2022-09-22T02:42:09.688Z,7.74
2022-09-22T02:44:45.477Z,7.48
2022-09-22T02:47:17.507Z,7.29
2022-09-22T02:49:45.550Z,7.35
2022-09-22T02:52:14.070Z,7.45
2022-09-22T02:54:40.935Z,7.50
2022-09-22T02:57:10.149Z,7.52
2022-09-22T02:59:36.904Z,7.42
2022-09-22T03:02:03.874Z,7.22
2022-09-22T03:04:31.192Z,7.23
2022-09-22T03:06:57.928Z,7.27
2022-09-22T03:09:24.708Z,7.33
2022-09-22T03:11:51.385Z,7.34
2022-09-22T03:14:18.190Z,7.37
2022-09-22T03:16:44.854Z,7.36
2022-09-22T03:19:11.988Z,7.11
2022-09-22T03:21:38.621Z,7.04
2022-09-22T03:24:06.102Z,7.14
2022-09-22T03:26:33.304Z,7.09
2022-09-22T03:29:00.267Z,7.04
2022-09-22T03:31:27.114Z,7.12
2022-09-22T03:33:53.806Z,7.14
2022-09-22T03:36:20.875Z,7.15
2022-09-22T03:38:47.707Z,7.17
2022-09-22T03:41:14.700Z,7.15
2022-09-22T03:43:41.822Z,6.91
2022-09-22T03:46:08.618Z,6.90
2022-09-22T03:48:35.368Z,6.96
2022-09-22T03:51:02.294Z,7.01
2022-09-22T03:53:29.124Z,7.03
2022-09-22T03:56:05.800Z,6.94
2022-09-22T03:58:32.598Z,6.94
2022-09-22T04:00:59.370Z,7.01
2022-09-22T04:03:26.126Z,7.04
2022-09-22T04:05:53.404Z,7.07
2022-09-22T04:08:20.514Z,7.12
2022-09-22T04:10:47.187Z,7.15
2022-09-22T04:13:14.803Z,7.24
2022-09-22T04:15:41.643Z,7.15
2022-09-22T04:18:08.653Z,7.09
2022-09-22T04:20:36.451Z,7.10
2022-09-22T04:23:03.310Z,7.02
2022-09-22T04:25:32.052Z,6.94
2022-09-22T04:28:02.247Z,6.89
2022-09-22T04:30:32.266Z,6.91
2022-09-22T04:32:59.968Z,6.90
2022-09-22T04:35:30.223Z,6.92
2022-09-22T04:37:58.037Z,6.94
2022-09-22T04:40:25.365Z,6.95
2022-09-22T04:42:52.505Z,6.92
2022-09-22T04:45:19.261Z,6.92
2022-09-22T04:47:51.556Z,6.89
2022-09-22T04:50:20.386Z,6.83
2022-09-22T04:52:50.090Z,6.80
2022-09-22T04:55:18.065Z,6.69
2022-09-22T04:57:54.544Z,6.69
2022-09-22T05:00:23.209Z,6.71
2022-09-22T05:02:50.426Z,6.69
2022-09-22T05:05:17.647Z,6.72
2022-09-22T05:07:46.309Z,6.69
2022-09-22T05:10:14.196Z,6.69
2022-09-22T05:12:41.752Z,6.74
2022-09-22T05:15:36.061Z,6.80
2022-09-22T05:18:03.031Z,6.87
2022-09-22T05:20:29.821Z,7.04
2022-09-22T05:22:56.536Z,7.33
2022-09-22T05:25:23.619Z,7.41
2022-09-22T05:27:54.585Z,7.40
2022-09-22T05:30:24.037Z,7.29
2022-09-22T05:32:50.970Z,7.24
2022-09-22T05:35:21.501Z,7.36
2022-09-22T05:37:50.786Z,7.34
2022-09-22T05:40:19.238Z,7.30
2022-09-22T05:42:48.488Z,7.30
2022-09-22T05:45:16.448Z,7.34
2022-09-22T05:47:43.936Z,7.43
2022-09-22T05:50:12.835Z,7.37
2022-09-22T05:52:39.870Z,7.49
2022-09-22T05:55:07.493Z,7.57
2022-09-22T05:57:34.589Z,7.76
2022-09-22T06:00:02.133Z,7.86
2022-09-22T06:02:28.901Z,7.97
2022-09-22T06:04:55.653Z,8.40
2022-09-22T06:07:24.098Z,9.20
2022-09-22T06:09:51.773Z,10.26
2022-09-22T06:12:18.920Z,10.97
2022-09-22T06:14:45.682Z,11.58
2022-09-22T06:17:12.827Z,12.15
2022-09-22T06:19:40.264Z,12.53
2022-09-22T06:22:08.158Z,13.40
2022-09-22T06:24:34.928Z,13.22
2022-09-22T06:27:01.615Z,13.20
2022-09-22T06:29:28.802Z,13.52
2022-09-22T06:31:56.760Z,13.18
2022-09-22T06:34:23.957Z,13.02
2022-09-22T06:36:50.646Z,12.39
2022-09-22T06:39:17.358Z,12.15
2022-09-22T06:41:44.893Z,11.81
2022-09-22T06:44:12.703Z,11.67
2022-09-22T06:46:39.492Z,11.76
2022-09-22T06:49:06.261Z,11.46
2022-09-22T06:51:35.660Z,11.37
2022-09-22T06:54:05.080Z,11.37
2022-09-22T06:56:42.872Z,11.36
2022-09-22T06:59:12.893Z,11.30
2022-09-22T07:01:42.239Z,11.40
2022-09-22T07:04:10.615Z,11.52
2022-09-22T07:06:39.684Z,11.67
2022-09-22T07:09:09.215Z,11.90
2022-09-22T07:11:39.768Z,12.13
2022-09-22T07:14:07.375Z,12.34
2022-09-22T07:16:36.281Z,12.44
2022-09-22T07:19:05.229Z,12.51
2022-09-22T07:21:38.093Z,12.64
2022-09-22T07:24:05.554Z,12.81
2022-09-22T07:26:35.186Z,12.69
2022-09-22T07:29:06.152Z,12.90
2022-09-22T07:31:34.818Z,13.12
2022-09-22T07:34:02.046Z,13.29
2022-09-22T07:36:31.441Z,13.36
2022-09-22T07:39:03.372Z,13.49
2022-09-22T07:41:32.015Z,13.57
2022-09-22T07:44:19.288Z,13.70
2022-09-22T07:46:46.393Z,14.02
2022-09-22T07:49:15.306Z,13.87
2022-09-22T07:51:43.022Z,14.07
2022-09-22T07:54:10.229Z,14.29
2022-09-22T07:56:40.269Z,14.41
2022-09-22T07:59:11.142Z,14.65
2022-09-22T08:01:42.176Z,14.72
2022-09-22T08:04:15.632Z,14.91
2022-09-22T08:06:47.154Z,14.35
2022-09-22T08:09:14.289Z,14.21
2022-09-22T08:11:45.983Z,14.57
2022-09-22T08:14:13.057Z,14.79
2022-09-22T08:16:41.021Z,14.76
2022-09-22T08:19:12.752Z,15.01
2022-09-22T08:21:49.483Z,15.60
2022-09-22T08:24:22.722Z,15.84
2022-09-22T08:26:52.645Z,15.80
2022-09-22T08:29:20.626Z,16.08
2022-09-22T08:31:49.624Z,15.95
2022-09-22T08:34:17.700Z,16.23
2022-09-22T08:36:46.385Z,16.59
2022-09-22T08:39:13.435Z,16.64
2022-09-22T08:42:09.251Z,16.44
2022-09-22T08:44:49.314Z,16.91
2022-09-22T08:47:44.613Z,17.10
2022-09-22T08:50:46.660Z,16.86
2022-09-22T08:53:18.616Z,17.28
2022-09-22T08:55:55.643Z,17.53
2022-09-22T08:58:36.763Z,17.63
2022-09-22T09:01:49.815Z,17.83
2022-09-22T09:04:54.807Z,17.84
2022-09-22T09:07:37.345Z,17.79
2022-09-22T09:10:18.843Z,17.37
2022-09-22T09:13:07.325Z,17.40
2022-09-22T09:15:57.452Z,16.98
2022-09-22T09:18:32.721Z,17.82
2022-09-22T09:21:04.604Z,18.16
2022-09-22T09:26:35.822Z,18.54
2022-09-22T09:29:06.928Z,18.22
2022-09-22T09:31:42.671Z,17.77
2022-09-22T09:34:18.035Z,18.06
2022-09-22T09:36:52.751Z,18.22
2022-09-22T09:39:36.609Z,18.29
2022-09-22T09:42:22.943Z,18.39
2022-09-22T09:44:54.292Z,18.79
2022-09-22T09:47:59.014Z,18.81
2022-09-22T09:50:32.469Z,19.03
2022-09-22T09:53:00.079Z,18.83
2022-09-22T09:55:27.757Z,18.41
2022-09-22T09:58:12.397Z,18.55
2022-09-22T10:00:59.850Z,18.51
2022-09-22T10:03:33.606Z,18.70
2022-09-22T10:06:07.930Z,18.57
2022-09-22T10:08:44.805Z,18.78
2022-09-22T10:11:15.006Z,18.73
2022-09-22T10:13:43.658Z,18.90
2022-09-22T10:16:22.734Z,18.95
2022-09-22T10:18:52.121Z,18.85
2022-09-22T10:21:22.362Z,18.47
2022-09-22T10:23:51.071Z,18.14
2022-09-22T10:26:26.605Z,17.85
2022-09-22T10:29:12.510Z,17.96
2022-09-22T10:31:41.767Z,17.93
2022-09-22T10:34:27.994Z,17.87
2022-09-22T10:36:55.364Z,17.16
2022-09-22T10:39:32.251Z,17.49
2022-09-22T10:42:03.066Z,18.20
2022-09-22T10:44:40.989Z,18.22
2022-09-22T10:47:27.531Z,18.59
2022-09-22T10:50:12.924Z,18.96
2022-09-22T10:52:55.372Z,18.93
2022-09-22T10:55:28.318Z,18.51
2022-09-22T10:58:04.228Z,18.06
2022-09-22T11:00:41.922Z,17.90
2022-09-22T11:03:27.290Z,17.58
2022-09-22T11:06:30.096Z,17.92
2022-09-22T11:09:49.580Z,18.25
2022-09-22T11:12:31.646Z,18.40
2022-09-22T11:15:23.346Z,17.99
2022-09-22T11:18:10.705Z,17.75
2022-09-22T11:20:40.106Z,17.41
2022-09-22T11:23:34.788Z,17.54
2022-09-22T11:26:09.511Z,18.03
2022-09-22T11:28:57.245Z,18.88
2022-09-22T11:31:48.547Z,18.79
2022-09-22T11:34:30.399Z,18.62
2022-09-22T11:37:25.635Z,19.26
2022-09-22T11:40:17.448Z,18.91
2022-09-22T11:43:05.929Z,18.44
2022-09-22T11:46:08.980Z,18.19
2022-09-22T11:49:06.245Z,18.81
2022-09-22T11:51:53.217Z,19.24
2022-09-22T11:54:33.675Z,19.31
2022-09-22T11:57:09.015Z,18.32
2022-09-22T11:59:42.287Z,18.36
2022-09-22T12:02:19.220Z,18.11
2022-09-22T12:04:57.504Z,17.41
2022-09-22T12:07:37.457Z,17.91
2022-09-22T12:10:13.056Z,18.12
2022-09-22T12:12:43.869Z,18.51
2022-09-22T12:15:24.809Z,18.37
2022-09-22T12:18:05.444Z,18.78
2022-09-22T12:20:50.447Z,19.04
2022-09-22T12:23:39.314Z,19.28
2022-09-22T12:26:09.783Z,19.58
2022-09-22T12:28:46.568Z,19.43
2022-09-22T12:31:16.042Z,18.94
2022-09-22T12:33:50.327Z,18.92
2022-09-22T12:36:20.224Z,18.73
2022-09-22T12:38:47.786Z,18.72
2022-09-22T12:41:19.548Z,19.21
2022-09-22T12:43:47.931Z,19.23
2022-09-22T12:46:28.863Z,18.96
2022-09-22T12:48:55.830Z,18.84
2022-09-22T12:51:25.611Z,19.23
2022-09-22T12:54:12.397Z,19.58
2022-09-22T12:56:47.574Z,19.50
2022-09-22T12:59:36.745Z,19.28
2022-09-22T13:02:27.007Z,19.22
2022-09-22T13:04:56.710Z,19.08
2022-09-22T13:07:41.302Z,19.18
2022-09-22T13:10:23.312Z,19.23
2022-09-22T13:13:31.838Z,19.29
2022-09-22T13:16:01.832Z,18.85
2022-09-22T13:18:28.625Z,18.44
2022-09-22T13:20:56.621Z,17.98
2022-09-22T13:23:24.779Z,17.85
2022-09-22T13:25:51.835Z,17.77
2022-09-22T13:28:23.334Z,18.28
2022-09-22T13:31:09.671Z,18.39
2022-09-22T13:33:36.651Z,18.41
2022-09-22T13:36:07.050Z,18.23
2022-09-22T13:38:37.891Z,17.65
2022-09-22T13:41:10.960Z,17.89
2022-09-22T13:43:42.432Z,17.95
2022-09-22T13:46:21.940Z,18.13
2022-09-22T13:48:51.401Z,18.41
2022-09-22T13:51:18.288Z,18.30
2022-09-22T13:53:51.574Z,18.48
2022-09-22T13:56:22.116Z,18.60
2022-09-22T13:58:51.546Z,18.65
2022-09-22T14:01:22.640Z,18.48
2022-09-22T14:04:21.063Z,18.61
2022-09-22T14:06:49.601Z,18.75
2022-09-22T14:09:17.057Z,18.83
2022-09-22T14:11:44.254Z,18.64
2022-09-22T14:14:25.743Z,18.79
2022-09-22T14:16:57.090Z,18.52
2022-09-22T14:19:34.328Z,18.61
2022-09-22T14:22:17.789Z,18.73
2022-09-22T14:24:49.577Z,18.39
2022-09-22T14:27:25.128Z,18.70
2022-09-22T14:29:54.162Z,18.71
2022-09-22T14:32:49.897Z,18.61
2022-09-22T14:35:28.752Z,18.79
2022-09-22T14:38:03.296Z,18.47
2022-09-22T14:40:35.265Z,18.42
2022-09-22T14:43:11.222Z,18.19
2022-09-22T14:45:56.593Z,18.18
2022-09-22T14:48:34.536Z,18.20
2022-09-22T14:51:06.232Z,18.43
2022-09-22T14:53:35.552Z,18.39
2022-09-22T14:56:16.579Z,18.28
2022-09-22T14:58:54.623Z,18.44
2022-09-22T15:01:49.673Z,18.22
2022-09-22T15:04:25.033Z,18.08
2022-09-22T15:06:56.355Z,18.00
2022-09-22T15:09:30.856Z,17.90
2022-09-22T15:12:03.657Z,18.14
2022-09-22T15:14:34.568Z,17.97
2022-09-22T15:17:20.935Z,18.01
2022-09-22T15:19:51.784Z,18.04
2022-09-22T15:22:19.311Z,17.98
2022-09-22T15:24:47.083Z,18.08
2022-09-22T15:27:17.973Z,18.12
2022-09-22T15:29:45.656Z,17.85
2022-09-22T15:32:13.082Z,17.56
2022-09-22T15:34:42.771Z,17.68
2022-09-22T15:37:22.390Z,17.51
2022-09-22T15:39:49.472Z,17.43
2022-09-22T15:42:16.950Z,17.40
2022-09-22T15:44:44.747Z,17.33
2022-09-22T15:47:17.516Z,17.35
2022-09-22T15:49:49.278Z,17.12
2022-09-22T15:52:17.509Z,17.15
2022-09-22T15:54:48.306Z,17.04
2022-09-22T15:57:17.537Z,16.91
2022-09-22T15:59:46.402Z,16.79
2022-09-22T16:02:14.829Z,16.63
2022-09-22T16:04:42.802Z,16.65
2022-09-22T16:07:12.602Z,16.69
2022-09-22T16:09:40.311Z,16.64
2022-09-22T16:12:21.539Z,16.64
2022-09-22T16:14:50.977Z,16.58
2022-09-22T16:17:19.123Z,16.53
2022-09-22T16:19:47.079Z,16.51
2022-09-22T16:22:14.781Z,16.36
2022-09-22T16:24:45.029Z,16.33
2022-09-22T16:27:13.158Z,16.24
2022-09-22T16:29:42.874Z,16.14
2022-09-22T16:32:11.644Z,16.06
2022-09-22T16:34:38.421Z,15.91
2022-09-22T16:37:06.091Z,15.76
2022-09-22T16:39:33.214Z,15.69
2022-09-22T16:42:01.205Z,15.67
2022-09-22T16:44:29.353Z,15.59
2022-09-22T16:46:57.412Z,15.49
2022-09-22T16:49:25.790Z,15.42
2022-09-22T16:51:54.624Z,15.31
2022-09-22T16:54:22.404Z,15.24
2022-09-22T16:56:51.156Z,15.13
2022-09-22T16:59:21.490Z,14.99
2022-09-22T17:01:50.507Z,14.90
2022-09-22T17:04:19.957Z,14.80
2022-09-22T17:06:54.501Z,14.67
2022-09-22T17:09:22.622Z,14.54
2022-09-22T17:11:50.746Z,14.47
2022-09-22T17:14:22.512Z,14.33
2022-09-22T17:16:52.177Z,14.21
2022-09-22T17:19:29.105Z,14.08
2022-09-22T17:21:58.622Z,13.99
2022-09-22T17:24:27.135Z,13.86
2022-09-22T17:26:58.973Z,13.74
2022-09-22T17:29:28.447Z,13.61
2022-09-22T17:32:02.337Z,13.40
2022-09-22T17:34:34.029Z,13.36
2022-09-22T17:37:04.545Z,13.24
2022-09-22T17:39:32.832Z,13.12
2022-09-22T17:42:06.459Z,12.97
2022-09-22T17:44:35.923Z,12.92
2022-09-22T17:47:21.509Z,12.95
2022-09-22T17:50:07.633Z,12.98
2022-09-22T17:52:40.071Z,12.63
2022-09-22T17:55:16.181Z,12.52
2022-09-22T17:57:45.640Z,12.57
2022-09-22T18:00:13.221Z,12.36
2022-09-22T18:02:41.085Z,12.36
2022-09-22T18:08:07.508Z,12.38
2022-09-22T18:10:35.470Z,12.35
2022-09-22T18:13:04.363Z,12.33
2022-09-22T18:15:32.803Z,12.25
2022-09-22T18:18:00.546Z,12.23
2022-09-22T18:20:27.925Z,12.23
2022-09-22T18:22:56.425Z,12.21
2022-09-22T18:25:24.545Z,12.20
2022-09-22T18:27:54.354Z,12.13
2022-09-22T18:30:23.372Z,12.00
2022-09-22T18:32:51.292Z,12.04
2022-09-22T18:35:19.332Z,12.09
2022-09-22T18:37:47.476Z,12.14
2022-09-22T18:40:17.229Z,12.21
2022-09-22T18:42:45.061Z,12.33
2022-09-22T18:45:14.547Z,12.42
2022-09-22T18:47:44.256Z,12.57
2022-09-22T18:50:13.045Z,12.71
2022-09-22T18:52:43.292Z,12.84
2022-09-22T18:55:12.266Z,12.86
2022-09-22T18:57:39.701Z,12.74
2022-09-22T19:00:07.874Z,12.59
2022-09-22T19:02:35.180Z,12.52
2022-09-22T19:05:03.416Z,12.44
2022-09-22T19:07:42.092Z,12.62
2022-09-22T19:10:22.266Z,12.60
2022-09-22T19:12:51.095Z,12.41
2022-09-22T19:15:23.223Z,12.21
2022-09-22T19:17:51.747Z,12.22
2022-09-22T19:20:26.241Z,12.11
2022-09-22T19:22:54.824Z,11.91
2022-09-22T19:25:23.772Z,11.57
2022-09-22T19:27:53.117Z,11.52
2022-09-22T19:30:23.372Z,11.48
2022-09-22T19:32:56.420Z,11.50
2022-09-22T19:35:23.638Z,11.48
2022-09-22T19:37:53.805Z,11.42
2022-09-22T19:40:27.343Z,11.34
2022-09-22T19:42:59.984Z,11.29
2022-09-22T19:45:26.827Z,11.21
2022-09-22T19:47:58.539Z,11.17
2022-09-22T19:50:26.536Z,11.14
2022-09-22T19:52:53.816Z,11.16
2022-09-22T19:55:21.497Z,11.06
2022-09-22T19:57:49.137Z,11.03
2022-09-22T20:00:26.614Z,11.01
2022-09-22T20:02:58.935Z,10.96
2022-09-22T20:05:29.655Z,10.93
2022-09-22T20:07:58.263Z,10.95
2022-09-22T20:10:25.754Z,10.99
2022-09-22T20:12:52.786Z,11.01
2022-09-22T20:15:20.131Z,10.91
2022-09-22T20:17:47.850Z,10.86
2022-09-22T20:20:26.078Z,10.80
2022-09-22T20:23:01.205Z,10.75
2022-09-22T20:25:33.625Z,10.71
2022-09-22T20:28:02.644Z,10.67
2022-09-22T20:30:36.432Z,10.56
2022-09-22T20:33:04.809Z,10.55
2022-09-22T20:35:34.054Z,10.54
2022-09-22T20:38:04.429Z,10.62
2022-09-22T20:40:34.247Z,10.56
2022-09-22T20:43:03.445Z,10.59
2022-09-22T20:45:32.900Z,10.48
2022-09-22T20:48:00.948Z,10.35
2022-09-22T20:50:28.802Z,10.28
2022-09-22T20:52:56.518Z,10.24
2022-09-22T20:55:23.424Z,10.27
2022-09-22T20:57:52.803Z,10.22
2022-09-22T21:00:20.612Z,10.13
2022-09-22T21:02:48.870Z,10.12
2022-09-22T21:05:17.091Z,10.11
2022-09-22T21:07:45.169Z,10.06
2022-09-22T21:10:31.175Z,10.06
2022-09-22T21:12:58.590Z,10.04
2022-09-22T21:15:25.378Z,9.99
2022-09-22T21:17:53.180Z,9.99
2022-09-22T21:20:22.275Z,9.96
2022-09-22T21:22:51.289Z,9.92
2022-09-22T21:25:18.313Z,9.87
2022-09-22T21:27:46.315Z,9.83
2022-09-22T21:30:14.651Z,9.80
2022-09-22T21:32:43.810Z,9.80
2022-09-22T21:35:16.846Z,9.78
2022-09-22T21:37:45.149Z,9.76
2022-09-22T21:40:13.495Z,9.72
2022-09-22T21:42:41.745Z,9.70
2022-09-22T21:45:09.825Z,9.70
2022-09-22T21:47:37.820Z,9.63
2022-09-22T21:50:06.182Z,9.59
2022-09-22T21:52:34.141Z,9.50
2022-09-22T21:55:01.094Z,9.53
2022-09-22T21:57:29.568Z,9.55
2022-09-22T21:59:57.809Z,9.54
2022-09-22T22:02:25.784Z,9.53
2022-09-22T22:04:56.008Z,9.55
2022-09-22T22:07:24.599Z,9.52
2022-09-22T22:09:51.364Z,9.49
2022-09-22T22:12:18.047Z,9.47
2022-09-22T22:14:47.441Z,9.46
2022-09-22T22:17:14.253Z,9.49
2022-09-22T22:19:42.152Z,9.44
2022-09-22T22:22:10.158Z,9.49
2022-09-22T22:24:41.237Z,9.43
2022-09-22T22:27:10.416Z,9.38
2022-09-22T22:29:41.108Z,9.39
2022-09-22T22:32:11.372Z,9.40
2022-09-22T22:34:41.008Z,9.37
2022-09-22T22:37:10.121Z,9.38
2022-09-22T22:39:37.490Z,9.33
2022-09-22T22:42:05.406Z,9.33
2022-09-22T22:44:33.403Z,9.34
2022-09-22T22:47:01.385Z,9.31
2022-09-22T22:49:28.898Z,9.32
2022-09-22T22:51:56.679Z,9.26
2022-09-22T22:54:23.640Z,9.25
2022-09-22T22:56:51.773Z,9.22
2022-09-22T22:59:19.473Z,9.25
2022-09-22T23:01:46.298Z,9.26
2022-09-22T23:04:13.734Z,9.26
2022-09-22T23:06:45.686Z,9.19
2022-09-22T23:09:15.615Z,9.16
2022-09-22T23:11:44.517Z,9.16
2022-09-22T23:14:13.263Z,9.16
2022-09-22T23:16:46.641Z,9.07
2022-09-22T23:19:17.507Z,9.07
2022-09-22T23:21:46.042Z,9.03
2022-09-22T23:24:16.218Z,8.99
2022-09-22T23:26:45.357Z,8.95
2022-09-22T23:29:13.917Z,8.95
2022-09-22T23:31:41.331Z,8.98
2022-09-22T23:34:08.369Z,9.00
2022-09-22T23:36:35.245Z,8.99
2022-09-22T23:39:05.881Z,8.95
2022-09-22T23:41:36.110Z,8.93
2022-09-22T23:44:06.822Z,8.94
2022-09-22T23:46:34.726Z,8.93
2022-09-22T23:49:02.679Z,8.91
2022-09-22T23:51:30.859Z,8.91
2022-09-22T23:53:58.781Z,8.92
2022-09-22T23:56:25.741Z,8.89
2022-09-22T23:58:53.697Z,8.90
